sensor_id;sensor_type;location;lat;lon;timestamp;P1;durP1;ratioP1;P2;durP2;ratioP2
51286;SDS011;37364;46.974;18.916;2023-02-12T00:00:01;36.13;;;24.08;;
51286;SDS011;37364;46.974;18.916;2023-02-12T00:02:40;37.67;;;24.48;;
51286;SDS011;37364;46.974;18.916;2023-02-12T00:05:11;38.58;;;24.77;;
51286;SDS011;37364;46.974;18.916;2023-02-12T00:07:44;37.13;;;21.63;;
51286;SDS011;37364;46.974;18.916;2023-02-12T00:10:16;36.42;;;24.85;;
51286;SDS011;37364;46.974;18.916;2023-02-12T00:12:46;34.10;;;24.83;;
51286;SDS011;37364;46.974;18.916;2023-02-12T00:15:21;38.50;;;24.42;;
51286;SDS011;37364;46.974;18.916;2023-02-12T00:17:51;29.60;;;22.30;;
51286;SDS011;37364;46.974;18.916;2023-02-12T00:20:22;38.17;;;24.15;;
51286;SDS011;37364;46.974;18.916;2023-02-12T00:22:53;42.13;;;23.55;;
51286;SDS011;37364;46.974;18.916;2023-02-12T00:25:24;37.83;;;24.23;;
51286;SDS011;37364;46.974;18.916;2023-02-12T00:27:55;33.75;;;22.70;;
51286;SDS011;37364;46.974;18.916;2023-02-12T00:30:28;37.03;;;25.08;;
51286;SDS011;37364;46.974;18.916;2023-02-12T00:33:03;34.63;;;23.23;;
51286;SDS011;37364;46.974;18.916;2023-02-12T00:35:33;34.63;;;25.48;;
51286;SDS011;37364;46.974;18.916;2023-02-12T00:38:04;28.10;;;20.98;;
51286;SDS011;37364;46.974;18.916;2023-02-12T00:40:35;40.72;;;25.35;;
51286;SDS011;37364;46.974;18.916;2023-02-12T00:43:06;36.67;;;25.92;;
51286;SDS011;37364;46.974;18.916;2023-02-12T00:45:40;36.00;;;24.13;;
51286;SDS011;37364;46.974;18.916;2023-02-12T00:48:11;37.42;;;23.08;;
51286;SDS011;37364;46.974;18.916;2023-02-12T00:50:43;34.10;;;24.08;;
51286;SDS011;37364;46.974;18.916;2023-02-12T00:53:14;38.97;;;24.63;;
51286;SDS011;37364;46.974;18.916;2023-02-12T00:55:45;40.75;;;23.40;;
51286;SDS011;37364;46.974;18.916;2023-02-12T00:58:16;39.03;;;24.70;;
51286;SDS011;37364;46.974;18.916;2023-02-12T01:00:51;36.85;;;25.00;;
51286;SDS011;37364;46.974;18.916;2023-02-12T01:03:23;33.92;;;23.65;;
51286;SDS011;37364;46.974;18.916;2023-02-12T01:05:54;37.90;;;24.02;;
51286;SDS011;37364;46.974;18.916;2023-02-12T01:08:24;41.70;;;23.55;;
51286;SDS011;37364;46.974;18.916;2023-02-12T01:10:57;42.92;;;23.13;;
51286;SDS011;37364;46.974;18.916;2023-02-12T01:13:29;37.17;;;25.48;;
51286;SDS011;37364;46.974;18.916;2023-02-12T01:16:05;33.15;;;22.50;;
51286;SDS011;37364;46.974;18.916;2023-02-12T01:18:38;34.72;;;23.50;;
51286;SDS011;37364;46.974;18.916;2023-02-12T01:21:09;37.70;;;25.55;;
51286;SDS011;37364;46.974;18.916;2023-02-12T01:23:42;38.47;;;25.70;;
51286;SDS011;37364;46.974;18.916;2023-02-12T01:26:14;36.40;;;25.10;;
51286;SDS011;37364;46.974;18.916;2023-02-12T01:28:48;38.53;;;23.98;;
51286;SDS011;37364;46.974;18.916;2023-02-12T01:31:25;38.45;;;23.02;;
51286;SDS011;37364;46.974;18.916;2023-02-12T01:33:58;34.53;;;24.90;;
51286;SDS011;37364;46.974;18.916;2023-02-12T01:36:31;34.63;;;20.75;;
51286;SDS011;37364;46.974;18.916;2023-02-12T01:39:03;33.97;;;25.13;;
51286;SDS011;37364;46.974;18.916;2023-02-12T01:41:35;36.22;;;23.38;;
51286;SDS011;37364;46.974;18.916;2023-02-12T01:44:12;35.70;;;24.60;;
51286;SDS011;37364;46.974;18.916;2023-02-12T01:46:48;37.35;;;24.67;;
51286;SDS011;37364;46.974;18.916;2023-02-12T01:49:25;39.88;;;26.60;;
51286;SDS011;37364;46.974;18.916;2023-02-12T01:52:02;36.22;;;26.48;;
51286;SDS011;37364;46.974;18.916;2023-02-12T01:54:37;32.72;;;23.83;;
51286;SDS011;37364;46.974;18.916;2023-02-12T01:57:08;37.50;;;25.42;;
51286;SDS011;37364;46.974;18.916;2023-02-12T01:59:41;43.13;;;26.53;;
51286;SDS011;37364;46.974;18.916;2023-02-12T02:02:17;39.50;;;25.53;;
51286;SDS011;37364;46.974;18.916;2023-02-12T02:04:49;35.47;;;24.60;;
51286;SDS011;37364;46.974;18.916;2023-02-12T02:07:26;39.33;;;25.30;;
51286;SDS011;37364;46.974;18.916;2023-02-12T02:09:57;36.42;;;25.83;;
51286;SDS011;37364;46.974;18.916;2023-02-12T02:12:29;39.70;;;25.75;;
51286;SDS011;37364;46.974;18.916;2023-02-12T02:15:12;38.75;;;25.88;;
51286;SDS011;37364;46.974;18.916;2023-02-12T02:17:49;37.15;;;26.02;;
51286;SDS011;37364;46.974;18.916;2023-02-12T02:20:32;52.95;;;33.17;;
51286;SDS011;37364;46.974;18.916;2023-02-12T02:23:28;40.97;;;28.05;;
51286;SDS011;37364;46.974;18.916;2023-02-12T02:26:27;35.83;;;26.40;;
51286;SDS011;37364;46.974;18.916;2023-02-12T02:29:19;40.72;;;31.00;;
51286;SDS011;37364;46.974;18.916;2023-02-12T02:32:11;41.35;;;28.55;;
51286;SDS011;37364;46.974;18.916;2023-02-12T02:34:49;40.42;;;29.30;;
51286;SDS011;37364;46.974;18.916;2023-02-12T02:37:25;40.00;;;27.67;;
51286;SDS011;37364;46.974;18.916;2023-02-12T02:40:02;34.28;;;26.50;;
51286;SDS011;37364;46.974;18.916;2023-02-12T02:42:42;38.75;;;28.42;;
51286;SDS011;37364;46.974;18.916;2023-02-12T02:45:18;42.00;;;28.70;;
51286;SDS011;37364;46.974;18.916;2023-02-12T02:47:58;37.67;;;26.25;;
51286;SDS011;37364;46.974;18.916;2023-02-12T02:50:31;44.00;;;29.35;;
51286;SDS011;37364;46.974;18.916;2023-02-12T02:53:07;41.33;;;25.60;;
51286;SDS011;37364;46.974;18.916;2023-02-12T02:55:43;38.92;;;26.10;;
51286;SDS011;37364;46.974;18.916;2023-02-12T02:58:19;36.58;;;28.08;;
51286;SDS011;37364;46.974;18.916;2023-02-12T03:00:56;42.33;;;29.65;;
51286;SDS011;37364;46.974;18.916;2023-02-12T03:03:35;43.03;;;28.10;;
51286;SDS011;37364;46.974;18.916;2023-02-12T03:06:14;45.85;;;29.00;;
51286;SDS011;37364;46.974;18.916;2023-02-12T03:08:51;43.17;;;26.42;;
51286;SDS011;37364;46.974;18.916;2023-02-12T03:11:30;35.55;;;22.67;;
51286;SDS011;37364;46.974;18.916;2023-02-12T03:14:03;34.75;;;25.35;;
51286;SDS011;37364;46.974;18.916;2023-02-12T03:16:40;43.35;;;28.92;;
51286;SDS011;37364;46.974;18.916;2023-02-12T03:19:21;45.35;;;30.27;;
51286;SDS011;37364;46.974;18.916;2023-02-12T03:21:55;41.78;;;29.40;;
51286;SDS011;37364;46.974;18.916;2023-02-12T03:24:30;43.60;;;29.58;;
51286;SDS011;37364;46.974;18.916;2023-02-12T03:27:06;39.15;;;28.38;;
51286;SDS011;37364;46.974;18.916;2023-02-12T03:29:42;43.20;;;29.88;;
51286;SDS011;37364;46.974;18.916;2023-02-12T03:32:22;44.78;;;29.00;;
51286;SDS011;37364;46.974;18.916;2023-02-12T03:35:05;36.47;;;25.23;;
51286;SDS011;37364;46.974;18.916;2023-02-12T03:37:44;48.17;;;32.93;;
51286;SDS011;37364;46.974;18.916;2023-02-12T03:40:21;47.38;;;31.17;;
51286;SDS011;37364;46.974;18.916;2023-02-12T03:42:59;46.17;;;30.95;;
51286;SDS011;37364;46.974;18.916;2023-02-12T03:45:36;46.97;;;31.05;;
51286;SDS011;37364;46.974;18.916;2023-02-12T03:48:12;43.67;;;32.03;;
51286;SDS011;37364;46.974;18.916;2023-02-12T03:50:56;48.65;;;31.27;;
51286;SDS011;37364;46.974;18.916;2023-02-12T03:53:31;51.63;;;32.63;;
51286;SDS011;37364;46.974;18.916;2023-02-12T03:56:05;52.60;;;31.70;;
51286;SDS011;37364;46.974;18.916;2023-02-12T03:58:39;45.60;;;32.08;;
51286;SDS011;37364;46.974;18.916;2023-02-12T04:01:12;42.25;;;30.42;;
51286;SDS011;37364;46.974;18.916;2023-02-12T04:03:44;42.88;;;30.08;;
51286;SDS011;37364;46.974;18.916;2023-02-12T04:06:21;43.65;;;32.20;;
51286;SDS011;37364;46.974;18.916;2023-02-12T04:08:56;48.92;;;32.40;;
51286;SDS011;37364;46.974;18.916;2023-02-12T04:11:33;48.50;;;33.50;;
51286;SDS011;37364;46.974;18.916;2023-02-12T04:14:18;49.22;;;34.90;;
51286;SDS011;37364;46.974;18.916;2023-02-12T04:16:58;46.97;;;33.72;;
51286;SDS011;37364;46.974;18.916;2023-02-12T04:19:34;48.78;;;33.72;;
51286;SDS011;37364;46.974;18.916;2023-02-12T04:25:10;49.90;;;32.58;;
51286;SDS011;37364;46.974;18.916;2023-02-12T04:27:51;47.28;;;34.28;;
51286;SDS011;37364;46.974;18.916;2023-02-12T04:30:28;45.55;;;32.38;;
51286;SDS011;37364;46.974;18.916;2023-02-12T04:33:04;53.10;;;35.15;;
51286;SDS011;37364;46.974;18.916;2023-02-12T04:35:39;51.47;;;35.03;;
51286;SDS011;37364;46.974;18.916;2023-02-12T04:38:18;57.13;;;35.50;;
51286;SDS011;37364;46.974;18.916;2023-02-12T04:40:51;51.42;;;35.50;;
51286;SDS011;37364;46.974;18.916;2023-02-12T04:43:26;61.13;;;36.13;;
51286;SDS011;37364;46.974;18.916;2023-02-12T04:46:01;62.63;;;39.03;;
51286;SDS011;37364;46.974;18.916;2023-02-12T04:48:33;48.55;;;36.42;;
51286;SDS011;37364;46.974;18.916;2023-02-12T04:51:05;62.65;;;39.08;;
51286;SDS011;37364;46.974;18.916;2023-02-12T04:53:38;53.53;;;34.20;;
51286;SDS011;37364;46.974;18.916;2023-02-12T04:56:10;56.92;;;35.15;;
51286;SDS011;37364;46.974;18.916;2023-02-12T04:58:40;58.17;;;36.28;;
51286;SDS011;37364;46.974;18.916;2023-02-12T05:01:11;49.28;;;34.67;;
51286;SDS011;37364;46.974;18.916;2023-02-12T05:03:42;50.75;;;34.92;;
51286;SDS011;37364;46.974;18.916;2023-02-12T05:06:13;60.63;;;36.78;;
51286;SDS011;37364;46.974;18.916;2023-02-12T05:08:46;55.17;;;34.72;;
51286;SDS011;37364;46.974;18.916;2023-02-12T05:11:17;50.60;;;35.90;;
51286;SDS011;37364;46.974;18.916;2023-02-12T05:13:47;53.60;;;36.40;;
51286;SDS011;37364;46.974;18.916;2023-02-12T05:16:19;59.15;;;37.90;;
51286;SDS011;37364;46.974;18.916;2023-02-12T05:18:50;52.88;;;36.00;;
51286;SDS011;37364;46.974;18.916;2023-02-12T05:21:21;58.72;;;38.22;;
51286;SDS011;37364;46.974;18.916;2023-02-12T05:23:55;60.92;;;36.53;;
51286;SDS011;37364;46.974;18.916;2023-02-12T05:26:25;55.50;;;36.53;;
51286;SDS011;37364;46.974;18.916;2023-02-12T05:28:55;54.85;;;38.53;;
51286;SDS011;37364;46.974;18.916;2023-02-12T05:31:26;52.20;;;35.22;;
51286;SDS011;37364;46.974;18.916;2023-02-12T05:33:57;52.00;;;36.70;;
51286;SDS011;37364;46.974;18.916;2023-02-12T05:36:28;55.45;;;37.97;;
51286;SDS011;37364;46.974;18.916;2023-02-12T05:39:01;48.47;;;34.97;;
51286;SDS011;37364;46.974;18.916;2023-02-12T05:41:33;63.50;;;37.15;;
51286;SDS011;37364;46.974;18.916;2023-02-12T05:44:04;64.60;;;38.95;;
51286;SDS011;37364;46.974;18.916;2023-02-12T05:46:37;58.13;;;38.65;;
51286;SDS011;37364;46.974;18.916;2023-02-12T05:49:09;53.17;;;37.63;;
51286;SDS011;37364;46.974;18.916;2023-02-12T05:51:40;61.85;;;39.25;;
51286;SDS011;37364;46.974;18.916;2023-02-12T05:54:13;58.08;;;39.20;;
51286;SDS011;37364;46.974;18.916;2023-02-12T05:56:45;63.08;;;39.17;;
51286;SDS011;37364;46.974;18.916;2023-02-12T05:59:18;84.78;;;45.15;;
51286;SDS011;37364;46.974;18.916;2023-02-12T06:01:51;72.93;;;40.05;;
51286;SDS011;37364;46.974;18.916;2023-02-12T06:04:23;61.13;;;40.45;;
51286;SDS011;37364;46.974;18.916;2023-02-12T06:06:55;63.03;;;39.17;;
51286;SDS011;37364;46.974;18.916;2023-02-12T06:09:29;61.05;;;40.38;;
51286;SDS011;37364;46.974;18.916;2023-02-12T06:12:00;65.50;;;39.40;;
51286;SDS011;37364;46.974;18.916;2023-02-12T06:14:30;60.75;;;40.03;;
51286;SDS011;37364;46.974;18.916;2023-02-12T06:17:02;56.65;;;37.20;;
51286;SDS011;37364;46.974;18.916;2023-02-12T06:19:33;76.78;;;43.15;;
51286;SDS011;37364;46.974;18.916;2023-02-12T06:22:04;73.03;;;50.67;;
51286;SDS011;37364;46.974;18.916;2023-02-12T06:24:38;73.45;;;45.97;;
51286;SDS011;37364;46.974;18.916;2023-02-12T06:27:08;68.68;;;43.90;;
51286;SDS011;37364;46.974;18.916;2023-02-12T06:29:39;68.78;;;44.47;;
51286;SDS011;37364;46.974;18.916;2023-02-12T06:32:10;64.28;;;44.72;;
51286;SDS011;37364;46.974;18.916;2023-02-12T06:34:41;80.85;;;48.28;;
51286;SDS011;37364;46.974;18.916;2023-02-12T06:37:11;68.15;;;44.15;;
51286;SDS011;37364;46.974;18.916;2023-02-12T06:39:45;63.03;;;42.05;;
51286;SDS011;37364;46.974;18.916;2023-02-12T06:44:46;65.30;;;40.40;;
51286;SDS011;37364;46.974;18.916;2023-02-12T06:47:18;55.10;;;37.72;;
51286;SDS011;37364;46.974;18.916;2023-02-12T06:49:48;61.85;;;40.90;;
51286;SDS011;37364;46.974;18.916;2023-02-12T06:52:19;64.47;;;42.42;;
51286;SDS011;37364;46.974;18.916;2023-02-12T06:54:52;67.45;;;42.53;;
51286;SDS011;37364;46.974;18.916;2023-02-12T06:57:23;69.95;;;43.65;;
51286;SDS011;37364;46.974;18.916;2023-02-12T06:59:54;75.47;;;44.25;;
51286;SDS011;37364;46.974;18.916;2023-02-12T07:02:24;79.68;;;47.40;;
51286;SDS011;37364;46.974;18.916;2023-02-12T07:04:55;78.63;;;46.20;;
51286;SDS011;37364;46.974;18.916;2023-02-12T07:07:26;74.70;;;46.83;;
51286;SDS011;37364;46.974;18.916;2023-02-12T07:10:00;65.85;;;43.08;;
51286;SDS011;37364;46.974;18.916;2023-02-12T07:12:32;73.95;;;45.42;;
51286;SDS011;37364;46.974;18.916;2023-02-12T07:15:06;64.60;;;42.05;;
51286;SDS011;37364;46.974;18.916;2023-02-12T07:17:38;70.35;;;42.22;;
51286;SDS011;37364;46.974;18.916;2023-02-12T07:20:10;72.68;;;41.33;;
51286;SDS011;37364;46.974;18.916;2023-02-12T07:22:41;57.05;;;38.63;;
51286;SDS011;37364;46.974;18.916;2023-02-12T07:25:14;54.20;;;37.10;;
51286;SDS011;37364;46.974;18.916;2023-02-12T07:27:48;52.63;;;37.50;;
51286;SDS011;37364;46.974;18.916;2023-02-12T07:30:18;70.22;;;49.83;;
51286;SDS011;37364;46.974;18.916;2023-02-12T07:32:49;56.40;;;39.72;;
51286;SDS011;37364;46.974;18.916;2023-02-12T07:35:20;52.13;;;39.45;;
51286;SDS011;37364;46.974;18.916;2023-02-12T07:37:50;64.05;;;43.53;;
51286;SDS011;37364;46.974;18.916;2023-02-12T07:40:24;59.33;;;36.78;;
51286;SDS011;37364;46.974;18.916;2023-02-12T07:42:55;59.80;;;39.55;;
51286;SDS011;37364;46.974;18.916;2023-02-12T07:45:26;52.75;;;36.30;;
51286;SDS011;37364;46.974;18.916;2023-02-12T07:47:57;59.15;;;40.20;;
51286;SDS011;37364;46.974;18.916;2023-02-12T07:50:27;64.68;;;41.78;;
51286;SDS011;37364;46.974;18.916;2023-02-12T07:52:58;44.85;;;34.60;;
51286;SDS011;37364;46.974;18.916;2023-02-12T07:55:34;54.72;;;35.60;;
51286;SDS011;37364;46.974;18.916;2023-02-12T07:58:06;65.28;;;37.53;;
51286;SDS011;37364;46.974;18.916;2023-02-12T08:00:36;49.28;;;35.47;;
51286;SDS011;37364;46.974;18.916;2023-02-12T08:03:08;51.35;;;34.42;;
51286;SDS011;37364;46.974;18.916;2023-02-12T08:05:38;43.45;;;32.50;;
51286;SDS011;37364;46.974;18.916;2023-02-12T08:08:09;47.58;;;32.70;;
51286;SDS011;37364;46.974;18.916;2023-02-12T08:10:43;47.60;;;31.83;;
51286;SDS011;37364;46.974;18.916;2023-02-12T08:13:13;55.20;;;32.35;;
51286;SDS011;37364;46.974;18.916;2023-02-12T08:15:45;46.45;;;33.42;;
51286;SDS011;37364;46.974;18.916;2023-02-12T08:18:16;42.58;;;30.63;;
51286;SDS011;37364;46.974;18.916;2023-02-12T08:20:48;58.15;;;34.95;;
51286;SDS011;37364;46.974;18.916;2023-02-12T08:23:19;39.15;;;29.40;;
51286;SDS011;37364;46.974;18.916;2023-02-12T08:25:52;48.70;;;31.83;;
51286;SDS011;37364;46.974;18.916;2023-02-12T08:28:27;41.58;;;29.67;;
51286;SDS011;37364;46.974;18.916;2023-02-12T08:30:59;36.17;;;27.33;;
51286;SDS011;37364;46.974;18.916;2023-02-12T08:33:30;40.00;;;29.77;;
51286;SDS011;37364;46.974;18.916;2023-02-12T08:36:02;53.45;;;32.38;;
51286;SDS011;37364;46.974;18.916;2023-02-12T08:38:35;39.13;;;26.38;;
51286;SDS011;37364;46.974;18.916;2023-02-12T08:41:11;38.03;;;26.00;;
51286;SDS011;37364;46.974;18.916;2023-02-12T08:43:46;40.85;;;27.88;;
51286;SDS011;37364;46.974;18.916;2023-02-12T08:46:20;64.93;;;44.83;;
51286;SDS011;37364;46.974;18.916;2023-02-12T08:48:54;49.00;;;26.42;;
51286;SDS011;37364;46.974;18.916;2023-02-12T08:51:27;39.03;;;27.45;;
51286;SDS011;37364;46.974;18.916;2023-02-12T08:54:01;41.28;;;26.08;;
51286;SDS011;37364;46.974;18.916;2023-02-12T08:56:36;48.55;;;28.73;;
51286;SDS011;37364;46.974;18.916;2023-02-12T08:59:09;43.95;;;28.90;;
51286;SDS011;37364;46.974;18.916;2023-02-12T09:01:42;46.80;;;27.55;;
51286;SDS011;37364;46.974;18.916;2023-02-12T09:04:14;33.78;;;25.02;;
51286;SDS011;37364;46.974;18.916;2023-02-12T09:06:47;37.10;;;24.65;;
51286;SDS011;37364;46.974;18.916;2023-02-12T09:09:19;35.35;;;25.05;;
51286;SDS011;37364;46.974;18.916;2023-02-12T09:11:55;40.05;;;24.27;;
51286;SDS011;37364;46.974;18.916;2023-02-12T09:14:26;30.77;;;22.98;;
51286;SDS011;37364;46.974;18.916;2023-02-12T09:16:57;38.90;;;26.30;;
51286;SDS011;37364;46.974;18.916;2023-02-12T09:19:29;43.47;;;24.67;;
51286;SDS011;37364;46.974;18.916;2023-02-12T09:22:00;36.90;;;24.55;;
51286;SDS011;37364;46.974;18.916;2023-02-12T09:24:31;35.47;;;24.55;;
51286;SDS011;37364;46.974;18.916;2023-02-12T09:27:07;29.67;;;21.90;;
51286;SDS011;37364;46.974;18.916;2023-02-12T09:29:39;31.40;;;21.67;;
51286;SDS011;37364;46.974;18.916;2023-02-12T09:32:11;25.88;;;17.27;;
51286;SDS011;37364;46.974;18.916;2023-02-12T09:34:42;23.85;;;16.58;;
51286;SDS011;37364;46.974;18.916;2023-02-12T09:37:13;23.58;;;17.55;;
51286;SDS011;37364;46.974;18.916;2023-02-12T09:39:43;24.23;;;18.20;;
51286;SDS011;37364;46.974;18.916;2023-02-12T09:45:21;25.77;;;18.23;;
51286;SDS011;37364;46.974;18.916;2023-02-12T09:47:57;21.65;;;16.52;;
51286;SDS011;37364;46.974;18.916;2023-02-12T09:50:36;24.60;;;18.67;;
51286;SDS011;37364;46.974;18.916;2023-02-12T09:53:15;23.60;;;15.65;;
51286;SDS011;37364;46.974;18.916;2023-02-12T09:55:48;21.80;;;16.63;;
51286;SDS011;37364;46.974;18.916;2023-02-12T09:58:30;24.15;;;16.30;;
51286;SDS011;37364;46.974;18.916;2023-02-12T10:01:05;22.33;;;15.25;;
51286;SDS011;37364;46.974;18.916;2023-02-12T10:03:43;32.25;;;18.77;;
51286;SDS011;37364;46.974;18.916;2023-02-12T10:06:18;33.50;;;17.92;;
51286;SDS011;37364;46.974;18.916;2023-02-12T10:08:58;23.90;;;16.80;;
51286;SDS011;37364;46.974;18.916;2023-02-12T10:11:41;39.78;;;18.92;;
51286;SDS011;37364;46.974;18.916;2023-02-12T10:14:37;24.13;;;16.67;;
51286;SDS011;37364;46.974;18.916;2023-02-12T10:17:39;20.05;;;14.73;;
51286;SDS011;37364;46.974;18.916;2023-02-12T10:20:20;21.02;;;14.48;;
51286;SDS011;37364;46.974;18.916;2023-02-12T10:23:16;20.08;;;14.43;;
51286;SDS011;37364;46.974;18.916;2023-02-12T10:25:58;26.05;;;15.30;;
51286;SDS011;37364;46.974;18.916;2023-02-12T10:28:35;21.40;;;14.48;;
51286;SDS011;37364;46.974;18.916;2023-02-12T10:31:15;19.52;;;14.05;;
51286;SDS011;37364;46.974;18.916;2023-02-12T10:33:55;49.45;;;24.10;;
51286;SDS011;37364;46.974;18.916;2023-02-12T10:36:33;21.63;;;14.30;;
51286;SDS011;37364;46.974;18.916;2023-02-12T10:39:11;20.17;;;14.13;;
51286;SDS011;37364;46.974;18.916;2023-02-12T10:41:48;19.58;;;14.65;;
51286;SDS011;37364;46.974;18.916;2023-02-12T10:44:27;16.58;;;13.13;;
51286;SDS011;37364;46.974;18.916;2023-02-12T10:47:08;17.63;;;13.68;;
51286;SDS011;37364;46.974;18.916;2023-02-12T10:49:46;15.15;;;12.57;;
51286;SDS011;37364;46.974;18.916;2023-02-12T10:52:32;20.98;;;15.70;;
51286;SDS011;37364;46.974;18.916;2023-02-12T10:55:22;19.48;;;14.77;;
51286;SDS011;37364;46.974;18.916;2023-02-12T10:57:59;19.00;;;12.57;;
51286;SDS011;37364;46.974;18.916;2023-02-12T11:00:37;21.45;;;14.27;;
51286;SDS011;37364;46.974;18.916;2023-02-12T11:03:26;16.52;;;14.13;;
51286;SDS011;37364;46.974;18.916;2023-02-12T11:06:10;24.15;;;13.45;;
51286;SDS011;37364;46.974;18.916;2023-02-12T11:08:48;14.07;;;11.95;;
51286;SDS011;37364;46.974;18.916;2023-02-12T11:11:21;17.50;;;11.83;;
51286;SDS011;37364;46.974;18.916;2023-02-12T11:14:04;18.52;;;13.77;;
51286;SDS011;37364;46.974;18.916;2023-02-12T11:16:39;29.30;;;15.63;;
51286;SDS011;37364;46.974;18.916;2023-02-12T11:19:22;18.58;;;12.45;;
51286;SDS011;37364;46.974;18.916;2023-02-12T11:22:04;16.65;;;13.05;;
51286;SDS011;37364;46.974;18.916;2023-02-12T11:25:07;17.50;;;12.38;;
51286;SDS011;37364;46.974;18.916;2023-02-12T11:28:13;14.88;;;11.43;;
51286;SDS011;37364;46.974;18.916;2023-02-12T11:31:21;18.13;;;12.27;;
51286;SDS011;37364;46.974;18.916;2023-02-12T11:34:15;17.85;;;11.98;;
51286;SDS011;37364;46.974;18.916;2023-02-12T11:37:17;15.50;;;12.23;;
51286;SDS011;37364;46.974;18.916;2023-02-12T11:40:09;23.55;;;12.98;;
51286;SDS011;37364;46.974;18.916;2023-02-12T11:43:05;12.20;;;10.93;;
51286;SDS011;37364;46.974;18.916;2023-02-12T11:45:52;14.35;;;11.07;;
51286;SDS011;37364;46.974;18.916;2023-02-12T11:48:47;17.48;;;12.32;;
51286;SDS011;37364;46.974;18.916;2023-02-12T11:51:45;16.65;;;10.80;;
51286;SDS011;37364;46.974;18.916;2023-02-12T11:54:38;15.38;;;11.45;;
51286;SDS011;37364;46.974;18.916;2023-02-12T11:57:38;12.40;;;9.45;;
51286;SDS011;37364;46.974;18.916;2023-02-12T12:00:22;16.27;;;11.35;;
51286;SDS011;37364;46.974;18.916;2023-02-12T12:03:17;19.90;;;12.30;;
51286;SDS011;37364;46.974;18.916;2023-02-12T12:05:54;23.52;;;13.57;;
51286;SDS011;37364;46.974;18.916;2023-02-12T12:08:32;18.45;;;11.85;;
51286;SDS011;37364;46.974;18.916;2023-02-12T12:11:12;25.23;;;14.07;;
51286;SDS011;37364;46.974;18.916;2023-02-12T12:13:52;20.52;;;13.13;;
51286;SDS011;37364;46.974;18.916;2023-02-12T12:16:31;31.25;;;14.57;;
51286;SDS011;37364;46.974;18.916;2023-02-12T12:19:21;32.45;;;15.55;;
51286;SDS011;37364;46.974;18.916;2023-02-12T12:22:10;33.28;;;14.98;;
51286;SDS011;37364;46.974;18.916;2023-02-12T12:24:46;37.38;;;15.85;;
51286;SDS011;37364;46.974;18.916;2023-02-12T12:27:39;24.30;;;16.17;;
51286;SDS011;37364;46.974;18.916;2023-02-12T12:30:27;24.27;;;15.43;;
51286;SDS011;37364;46.974;18.916;2023-02-12T12:33:09;21.48;;;15.05;;
51286;SDS011;37364;46.974;18.916;2023-02-12T12:35:52;21.35;;;13.70;;
51286;SDS011;37364;46.974;18.916;2023-02-12T12:38:38;40.38;;;17.38;;
51286;SDS011;37364;46.974;18.916;2023-02-12T12:41:21;25.67;;;14.75;;
51286;SDS011;37364;46.974;18.916;2023-02-12T12:44:02;21.70;;;15.98;;
51286;SDS011;37364;46.974;18.916;2023-02-12T12:46:50;18.33;;;14.68;;
51286;SDS011;37364;46.974;18.916;2023-02-12T12:49:32;26.70;;;18.58;;
51286;SDS011;37364;46.974;18.916;2023-02-12T12:55:43;36.78;;;20.65;;
51286;SDS011;37364;46.974;18.916;2023-02-12T12:58:27;25.42;;;20.55;;
51286;SDS011;37364;46.974;18.916;2023-02-12T13:01:32;33.40;;;21.27;;
51286;SDS011;37364;46.974;18.916;2023-02-12T13:04:19;31.40;;;21.55;;
51286;SDS011;37364;46.974;18.916;2023-02-12T13:07:17;34.60;;;23.75;;
51286;SDS011;37364;46.974;18.916;2023-02-12T13:10:09;28.45;;;22.35;;
51286;SDS011;37364;46.974;18.916;2023-02-12T13:13:17;30.15;;;22.70;;
51286;SDS011;37364;46.974;18.916;2023-02-12T13:16:42;39.92;;;22.88;;
51286;SDS011;37364;46.974;18.916;2023-02-12T13:19:38;26.98;;;20.23;;
51286;SDS011;37364;46.974;18.916;2023-02-12T13:22:51;25.38;;;20.02;;
51286;SDS011;37364;46.974;18.916;2023-02-12T13:25:52;26.05;;;19.55;;
51286;SDS011;37364;46.974;18.916;2023-02-12T13:28:47;30.77;;;20.52;;
51286;SDS011;37364;46.974;18.916;2023-02-12T13:31:56;32.72;;;21.00;;
51286;SDS011;37364;46.974;18.916;2023-02-12T13:37:40;28.52;;;20.60;;
51286;SDS011;37364;46.974;18.916;2023-02-12T13:40:28;30.13;;;20.73;;
51286;SDS011;37364;46.974;18.916;2023-02-12T13:43:35;51.50;;;31.48;;
51286;SDS011;37364;46.974;18.916;2023-02-12T13:46:32;37.28;;;26.33;;
51286;SDS011;37364;46.974;18.916;2023-02-12T13:52:25;23.17;;;18.65;;
51286;SDS011;37364;46.974;18.916;2023-02-12T13:55:13;22.83;;;18.30;;
51286;SDS011;37364;46.974;18.916;2023-02-12T14:01:11;26.20;;;18.92;;
51286;SDS011;37364;46.974;18.916;2023-02-12T14:03:47;27.40;;;20.98;;
51286;SDS011;37364;46.974;18.916;2023-02-12T14:06:34;25.63;;;18.70;;
51286;SDS011;37364;46.974;18.916;2023-02-12T14:09:21;23.52;;;18.63;;
51286;SDS011;37364;46.974;18.916;2023-02-12T14:12:06;23.02;;;19.42;;
51286;SDS011;37364;46.974;18.916;2023-02-12T14:14:41;24.42;;;17.90;;
51286;SDS011;37364;46.974;18.916;2023-02-12T14:17:50;24.15;;;18.45;;
51286;SDS011;37364;46.974;18.916;2023-02-12T14:27:48;30.20;;;19.48;;
51286;SDS011;37364;46.974;18.916;2023-02-12T14:30:28;24.30;;;18.23;;
51286;SDS011;37364;46.974;18.916;2023-02-12T14:33:25;27.45;;;19.23;;
51286;SDS011;37364;46.974;18.916;2023-02-12T14:36:12;26.95;;;20.08;;
51286;SDS011;37364;46.974;18.916;2023-02-12T14:45:41;25.40;;;19.10;;
51286;SDS011;37364;46.974;18.916;2023-02-12T14:48:37;28.88;;;20.38;;
51286;SDS011;37364;46.974;18.916;2023-02-12T14:51:13;34.80;;;21.92;;
51286;SDS011;37364;46.974;18.916;2023-02-12T14:53:51;54.35;;;25.88;;
51286;SDS011;37364;46.974;18.916;2023-02-12T14:56:25;63.83;;;28.88;;
51286;SDS011;37364;46.974;18.916;2023-02-12T14:59:15;45.50;;;25.52;;
51286;SDS011;37364;46.974;18.916;2023-02-12T15:02:03;39.92;;;26.38;;
51286;SDS011;37364;46.974;18.916;2023-02-12T15:04:52;39.92;;;24.83;;
51286;SDS011;37364;46.974;18.916;2023-02-12T15:07:43;48.58;;;29.42;;
51286;SDS011;37364;46.974;18.916;2023-02-12T15:10:28;48.70;;;29.73;;
51286;SDS011;37364;46.974;18.916;2023-02-12T15:13:39;34.70;;;25.02;;
51286;SDS011;37364;46.974;18.916;2023-02-12T15:26:36;47.35;;;30.95;;
51286;SDS011;37364;46.974;18.916;2023-02-12T15:29:28;51.47;;;33.33;;
51286;SDS011;37364;46.974;18.916;2023-02-12T15:32:18;52.63;;;32.78;;
51286;SDS011;37364;46.974;18.916;2023-02-12T15:35:00;45.40;;;31.48;;
51286;SDS011;37364;46.974;18.916;2023-02-12T15:38:19;51.47;;;32.08;;
51286;SDS011;37364;46.974;18.916;2023-02-12T15:44:41;62.47;;;33.63;;
51286;SDS011;37364;46.974;18.916;2023-02-12T15:47:38;44.72;;;28.35;;
51286;SDS011;37364;46.974;18.916;2023-02-12T15:50:16;45.28;;;28.85;;
51286;SDS011;37364;46.974;18.916;2023-02-12T15:53:14;59.13;;;34.50;;
51286;SDS011;37364;46.974;18.916;2023-02-12T15:55:52;106.53;;;55.90;;
51286;SDS011;37364;46.974;18.916;2023-02-12T15:58:26;187.90;;;90.43;;
51286;SDS011;37364;46.974;18.916;2023-02-12T16:01:03;188.48;;;93.50;;